Terminal Aerodrome Forecast
Issued by NWS

Home | Current Version | Previous Version | Text Only | Print | Product List | Glossary On
Versions: 1 2 3 4 5 6 7 8 9 10 11 12 13
000
FTUS43 KIND 181735
TAFLAF
TAF
KLAF 181735Z 1818/1918 24010G20KT P6SM OVC015
     FM182000 24010KT P6SM OVC020
     FM190200 22007KT P6SM SCT040
     FM191500 25010KT P6SM SCT030=

USA.gov is the U.S. government's official web portal to all federal, state and local government web resources and services.